sensor_id;sensor_type;location;lat;lon;timestamp;pressure;altitude;pressure_sealevel;temperature;humidity
49072;BME280;52656;52.610;10.236;2023-04-29T00:02:13;100453.13;;;12.47;93.93
49072;BME280;52656;52.610;10.236;2023-04-29T00:04:38;100449.25;;;12.37;95.28
49072;BME280;52656;52.610;10.236;2023-04-29T00:07:03;100447.78;;;12.32;94.20
49072;BME280;52656;52.610;10.236;2023-04-29T00:09:29;100441.66;;;12.30;94.14
49072;BME280;52656;52.610;10.236;2023-04-29T00:11:54;100444.28;;;12.31;93.69
49072;BME280;52656;52.610;10.236;2023-04-29T00:14:19;100443.56;;;12.28;94.08
49072;BME280;52656;52.610;10.236;2023-04-29T00:16:45;100438.50;;;12.23;93.93
49072;BME280;52656;52.610;10.236;2023-04-29T00:19:11;100442.00;;;12.24;94.62
49072;BME280;52656;52.610;10.236;2023-04-29T00:21:36;100448.53;;;12.16;97.36
49072;BME280;52656;52.610;10.236;2023-04-29T00:24:02;100433.47;;;12.17;94.71
49072;BME280;52656;52.610;10.236;2023-04-29T00:26:27;100435.28;;;12.16;94.51
49072;BME280;52656;52.610;10.236;2023-04-29T00:28:53;100440.66;;;12.15;94.41
49072;BME280;52656;52.610;10.236;2023-04-29T00:31:18;100443.19;;;12.18;94.27
49072;BME280;52656;52.610;10.236;2023-04-29T00:33:43;100441.63;;;12.14;95.12
49072;BME280;52656;52.610;10.236;2023-04-29T00:36:10;100437.44;;;12.26;93.81
49072;BME280;52656;52.610;10.236;2023-04-29T00:38:35;100444.03;;;12.18;93.63
49072;BME280;52656;52.610;10.236;2023-04-29T00:41:01;100444.28;;;12.31;93.05
49072;BME280;52656;52.610;10.236;2023-04-29T00:43:27;100444.31;;;12.30;93.13
49072;BME280;52656;52.610;10.236;2023-04-29T00:45:52;100452.63;;;12.24;94.33
49072;BME280;52656;52.610;10.236;2023-04-29T00:48:18;100461.75;;;12.35;92.52
49072;BME280;52656;52.610;10.236;2023-04-29T00:50:43;100453.84;;;12.34;92.62
49072;BME280;52656;52.610;10.236;2023-04-29T00:53:10;100466.19;;;12.35;92.70
49072;BME280;52656;52.610;10.236;2023-04-29T00:55:40;100464.72;;;12.29;93.47
49072;BME280;52656;52.610;10.236;2023-04-29T00:58:05;100471.81;;;12.29;93.23
49072;BME280;52656;52.610;10.236;2023-04-29T01:00:31;100474.88;;;12.21;93.87
49072;BME280;52656;52.610;10.236;2023-04-29T01:02:57;100470.34;;;12.23;92.58
49072;BME280;52656;52.610;10.236;2023-04-29T01:05:23;100481.22;;;12.18;93.37
49072;BME280;52656;52.610;10.236;2023-04-29T01:10:26;100480.25;;;12.02;93.40
49072;BME280;52656;52.610;10.236;2023-04-29T01:13:06;100485.28;;;12.08;92.84
49072;BME280;52656;52.610;10.236;2023-04-29T01:15:37;100483.28;;;12.12;92.31
49072;BME280;52656;52.610;10.236;2023-04-29T01:20:56;100491.09;;;11.98;92.47
49072;BME280;52656;52.610;10.236;2023-04-29T01:23:26;100486.88;;;11.93;93.11
49072;BME280;52656;52.610;10.236;2023-04-29T01:25:52;100478.69;;;11.81;93.70
49072;BME280;52656;52.610;10.236;2023-04-29T01:31:23;100489.28;;;11.81;92.83
49072;BME280;52656;52.610;10.236;2023-04-29T01:34:03;100488.34;;;11.82;92.54
49072;BME280;52656;52.610;10.236;2023-04-29T01:39:43;100499.25;;;11.76;92.92
49072;BME280;52656;52.610;10.236;2023-04-29T01:42:23;100511.81;;;11.72;92.43
49072;BME280;52656;52.610;10.236;2023-04-29T01:44:54;100510.88;;;11.73;92.52
49072;BME280;52656;52.610;10.236;2023-04-29T01:47:20;100512.59;;;11.74;92.00
49072;BME280;52656;52.610;10.236;2023-04-29T01:49:45;100522.34;;;11.74;91.92
49072;BME280;52656;52.610;10.236;2023-04-29T01:52:11;100524.06;;;11.75;92.59
49072;BME280;52656;52.610;10.236;2023-04-29T01:54:37;100529.47;;;11.73;92.42
49072;BME280;52656;52.610;10.236;2023-04-29T01:57:02;100533.81;;;11.74;91.66
49072;BME280;52656;52.610;10.236;2023-04-29T01:59:28;100539.22;;;11.73;92.06
49072;BME280;52656;52.610;10.236;2023-04-29T02:01:54;100540.00;;;11.75;92.01
49072;BME280;52656;52.610;10.236;2023-04-29T02:04:21;100545.38;;;11.73;92.18
49072;BME280;52656;52.610;10.236;2023-04-29T02:06:46;100555.91;;;11.75;91.75
49072;BME280;52656;52.610;10.236;2023-04-29T02:09:11;100554.97;;;11.76;91.41
49072;BME280;52656;52.610;10.236;2023-04-29T02:11:37;100557.56;;;11.77;91.42
49072;BME280;52656;52.610;10.236;2023-04-29T02:14:02;100565.75;;;11.73;91.56
49072;BME280;52656;52.610;10.236;2023-04-29T02:16:27;100566.81;;;11.68;91.64
49072;BME280;52656;52.610;10.236;2023-04-29T02:18:52;100569.91;;;11.59;91.08
49072;BME280;52656;52.610;10.236;2023-04-29T02:21:18;100576.59;;;11.49;91.24
49072;BME280;52656;52.610;10.236;2023-04-29T02:23:43;100580.31;;;11.45;91.16
49072;BME280;52656;52.610;10.236;2023-04-29T02:26:08;100582.03;;;11.46;91.00
49072;BME280;52656;52.610;10.236;2023-04-29T02:28:34;100584.03;;;11.41;90.95
49072;BME280;52656;52.610;10.236;2023-04-29T02:31:00;100588.69;;;11.36;90.30
49072;BME280;52656;52.610;10.236;2023-04-29T02:33:26;100593.38;;;11.29;90.79
49072;BME280;52656;52.610;10.236;2023-04-29T02:35:51;100596.41;;;11.20;90.82
49072;BME280;52656;52.610;10.236;2023-04-29T02:38:16;100595.69;;;11.16;91.09
49072;BME280;52656;52.610;10.236;2023-04-29T02:40:45;100604.56;;;11.15;90.70
49072;BME280;52656;52.610;10.236;2023-04-29T02:43:11;100602.88;;;11.14;90.77
49072;BME280;52656;52.610;10.236;2023-04-29T02:45:37;100610.69;;;11.17;90.65
49072;BME280;52656;52.610;10.236;2023-04-29T02:48:03;100607.78;;;11.24;90.22
49072;BME280;52656;52.610;10.236;2023-04-29T02:50:29;100609.41;;;11.26;89.58
49072;BME280;52656;52.610;10.236;2023-04-29T02:52:54;100612.25;;;11.21;90.23
49072;BME280;52656;52.610;10.236;2023-04-29T02:55:19;100612.06;;;11.26;89.49
49072;BME280;52656;52.610;10.236;2023-04-29T02:57:45;100606.44;;;11.13;89.96
49072;BME280;52656;52.610;10.236;2023-04-29T03:00:10;100617.19;;;11.10;90.70
49072;BME280;52656;52.610;10.236;2023-04-29T03:02:36;100625.41;;;11.04;90.80
49072;BME280;52656;52.610;10.236;2023-04-29T03:05:02;100628.91;;;11.05;90.27
49072;BME280;52656;52.610;10.236;2023-04-29T03:07:27;100632.75;;;10.98;90.07
49072;BME280;52656;52.610;10.236;2023-04-29T03:09:54;100636.47;;;10.93;89.40
49072;BME280;52656;52.610;10.236;2023-04-29T03:12:20;100641.91;;;10.90;89.50
49072;BME280;52656;52.610;10.236;2023-04-29T03:14:45;100642.97;;;10.86;89.80
49072;BME280;52656;52.610;10.236;2023-04-29T03:17:11;100643.94;;;10.84;90.43
49072;BME280;52656;52.610;10.236;2023-04-29T03:19:36;100648.19;;;10.88;90.44
49072;BME280;52656;52.610;10.236;2023-04-29T03:22:02;100646.47;;;10.87;90.51
49072;BME280;52656;52.610;10.236;2023-04-29T03:24:27;100643.28;;;10.79;90.15
49072;BME280;52656;52.610;10.236;2023-04-29T03:26:52;100643.28;;;10.79;90.50
49072;BME280;52656;52.610;10.236;2023-04-29T03:29:18;100652.28;;;10.75;89.87
49072;BME280;52656;52.610;10.236;2023-04-29T03:31:44;100655.38;;;10.64;90.45
49072;BME280;52656;52.610;10.236;2023-04-29T03:34:09;100656.34;;;10.61;90.71
49072;BME280;52656;52.610;10.236;2023-04-29T03:36:35;100670.72;;;10.56;91.73
49072;BME280;52656;52.610;10.236;2023-04-29T03:39:01;100662.59;;;10.60;90.17
49072;BME280;52656;52.610;10.236;2023-04-29T03:41:26;100671.59;;;10.56;91.28
49072;BME280;52656;52.610;10.236;2023-04-29T03:43:51;100673.25;;;10.59;90.35
49072;BME280;52656;52.610;10.236;2023-04-29T03:46:17;100666.41;;;10.53;91.30
49072;BME280;52656;52.610;10.236;2023-04-29T03:48:42;100669.97;;;10.52;90.71
49072;BME280;52656;52.610;10.236;2023-04-29T03:51:07;100670.72;;;10.56;90.65
49072;BME280;52656;52.610;10.236;2023-04-29T03:53:33;100667.59;;;10.46;90.32
49072;BME280;52656;52.610;10.236;2023-04-29T03:55:59;100681.63;;;10.48;90.17
49072;BME280;52656;52.610;10.236;2023-04-29T03:58:24;100671.19;;;10.45;90.33
49072;BME280;52656;52.610;10.236;2023-04-29T04:00:49;100673.81;;;10.45;90.60
49072;BME280;52656;52.610;10.236;2023-04-29T04:03:15;100679.84;;;10.49;90.18
49072;BME280;52656;52.610;10.236;2023-04-29T04:05:40;100686.06;;;10.48;90.86
49072;BME280;52656;52.610;10.236;2023-04-29T04:08:06;100689.53;;;10.50;90.47
49072;BME280;52656;52.610;10.236;2023-04-29T04:10:31;100691.25;;;10.51;90.19
49072;BME280;52656;52.610;10.236;2023-04-29T04:12:56;100695.78;;;10.47;90.55
49072;BME280;52656;52.610;10.236;2023-04-29T04:15:22;100700.53;;;10.39;89.00
49072;BME280;52656;52.610;10.236;2023-04-29T04:17:47;100713.16;;;10.32;89.18
49072;BME280;52656;52.610;10.236;2023-04-29T04:20:13;100716.56;;;10.36;89.11
49072;BME280;52656;52.610;10.236;2023-04-29T04:22:38;100720.41;;;10.27;89.96
49072;BME280;52656;52.610;10.236;2023-04-29T04:25:04;100724.59;;;10.33;88.61
49072;BME280;52656;52.610;10.236;2023-04-29T04:27:29;100731.69;;;10.32;88.54
49072;BME280;52656;52.610;10.236;2023-04-29T04:29:55;100738.94;;;10.27;88.71
49072;BME280;52656;52.610;10.236;2023-04-29T04:32:21;100741.78;;;10.23;89.02
49072;BME280;52656;52.610;10.236;2023-04-29T04:34:47;100745.50;;;10.17;89.53
49072;BME280;52656;52.610;10.236;2023-04-29T04:37:13;100745.56;;;10.15;88.92
49072;BME280;52656;52.610;10.236;2023-04-29T04:39:38;100750.78;;;10.17;88.78
49072;BME280;52656;52.610;10.236;2023-04-29T04:42:03;100758.88;;;10.14;89.25
49072;BME280;52656;52.610;10.236;2023-04-29T04:44:29;100754.59;;;10.10;89.61
49072;BME280;52656;52.610;10.236;2023-04-29T04:46:55;100758.00;;;10.13;88.93
49072;BME280;52656;52.610;10.236;2023-04-29T04:49:22;100754.69;;;10.08;88.38
49072;BME280;52656;52.610;10.236;2023-04-29T04:51:48;100766.22;;;10.06;88.60
49072;BME280;52656;52.610;10.236;2023-04-29T04:54:14;100767.56;;;10.17;87.83
49072;BME280;52656;52.610;10.236;2023-04-29T04:56:39;100778.88;;;10.21;87.65
49072;BME280;52656;52.610;10.236;2023-04-29T04:59:05;100784.25;;;10.19;87.31
49072;BME280;52656;52.610;10.236;2023-04-29T05:01:30;100790.56;;;10.15;87.35
49072;BME280;52656;52.610;10.236;2023-04-29T05:03:56;100792.47;;;10.12;87.38
49072;BME280;52656;52.610;10.236;2023-04-29T05:06:22;100795.94;;;10.14;88.14
49072;BME280;52656;52.610;10.236;2023-04-29T05:08:47;100798.56;;;10.37;86.26
49072;BME280;52656;52.610;10.236;2023-04-29T05:11:16;100799.94;;;10.48;86.44
49072;BME280;52656;52.610;10.236;2023-04-29T05:13:42;100801.28;;;10.58;85.51
49072;BME280;52656;52.610;10.236;2023-04-29T05:16:08;100806.94;;;10.72;85.85
49072;BME280;52656;52.610;10.236;2023-04-29T05:18:33;100798.66;;;10.80;84.95
49072;BME280;52656;52.610;10.236;2023-04-29T05:20:58;100803.03;;;10.81;84.56
49072;BME280;52656;52.610;10.236;2023-04-29T05:23:24;100805.16;;;10.94;84.45
49072;BME280;52656;52.610;10.236;2023-04-29T05:25:49;100802.56;;;10.93;83.94
49072;BME280;52656;52.610;10.236;2023-04-29T05:28:15;100798.44;;;10.86;83.64
49072;BME280;52656;52.610;10.236;2023-04-29T05:30:40;100804.66;;;10.85;84.10
49072;BME280;52656;52.610;10.236;2023-04-29T05:33:05;100813.22;;;10.91;84.09
49072;BME280;52656;52.610;10.236;2023-04-29T05:35:31;100813.13;;;10.94;83.17
49072;BME280;52656;52.610;10.236;2023-04-29T05:37:56;100817.31;;;11.00;82.42
49072;BME280;52656;52.610;10.236;2023-04-29T05:40:21;100821.56;;;11.04;83.14
49072;BME280;52656;52.610;10.236;2023-04-29T05:42:47;100819.78;;;11.05;83.30
49072;BME280;52656;52.610;10.236;2023-04-29T05:45:13;100830.00;;;11.14;82.23
49072;BME280;52656;52.610;10.236;2023-04-29T05:47:38;100832.69;;;11.12;82.34
49072;BME280;52656;52.610;10.236;2023-04-29T05:50:04;100846.28;;;11.05;83.22
49072;BME280;52656;52.610;10.236;2023-04-29T05:52:30;100847.63;;;11.15;82.43
49072;BME280;52656;52.610;10.236;2023-04-29T05:54:55;100855.84;;;11.09;82.75
49072;BME280;52656;52.610;10.236;2023-04-29T05:57:20;100858.78;;;11.01;82.22
49072;BME280;52656;52.610;10.236;2023-04-29T05:59:46;100856.13;;;11.01;81.92
49072;BME280;52656;52.610;10.236;2023-04-29T06:02:11;100860.69;;;10.98;83.05
49072;BME280;52656;52.610;10.236;2023-04-29T06:04:37;100867.78;;;10.97;81.97
49072;BME280;52656;52.610;10.236;2023-04-29T06:07:02;100873.94;;;10.98;82.56
49072;BME280;52656;52.610;10.236;2023-04-29T06:09:29;100877.88;;;10.87;82.01
49072;BME280;52656;52.610;10.236;2023-04-29T06:11:54;100891.38;;;10.81;82.05
49072;BME280;52656;52.610;10.236;2023-04-29T06:14:20;100897.47;;;10.83;82.64
49072;BME280;52656;52.610;10.236;2023-04-29T06:16:45;100895.38;;;10.91;82.28
49072;BME280;52656;52.610;10.236;2023-04-29T06:19:11;100899.41;;;11.02;81.27
49072;BME280;52656;52.610;10.236;2023-04-29T06:21:36;100900.66;;;11.15;80.59
49072;BME280;52656;52.610;10.236;2023-04-29T06:24:02;100905.25;;;11.33;79.55
49072;BME280;52656;52.610;10.236;2023-04-29T06:26:27;100910.00;;;11.47;78.70
49072;BME280;52656;52.610;10.236;2023-04-29T06:28:52;100911.56;;;11.73;77.64
49072;BME280;52656;52.610;10.236;2023-04-29T06:31:19;100912.03;;;12.03;76.67
49072;BME280;52656;52.610;10.236;2023-04-29T06:33:44;100917.16;;;12.28;75.73
49072;BME280;52656;52.610;10.236;2023-04-29T06:36:10;100915.03;;;12.76;74.43
49072;BME280;52656;52.610;10.236;2023-04-29T06:38:36;100921.31;;;12.93;73.70
49072;BME280;52656;52.610;10.236;2023-04-29T06:41:01;100930.06;;;13.14;72.81
49072;BME280;52656;52.610;10.236;2023-04-29T06:43:27;100922.44;;;13.81;68.67
49072;BME280;52656;52.610;10.236;2023-04-29T06:45:52;100926.03;;;14.65;66.47
49072;BME280;52656;52.610;10.236;2023-04-29T06:48:18;100927.13;;;14.94;65.44
49072;BME280;52656;52.610;10.236;2023-04-29T06:50:56;100930.72;;;14.77;63.66
49072;BME280;52656;52.610;10.236;2023-04-29T06:53:23;100932.50;;;14.43;65.40
49072;BME280;52656;52.610;10.236;2023-04-29T06:55:48;100941.31;;;14.28;64.81
49072;BME280;52656;52.610;10.236;2023-04-29T06:58:14;100939.38;;;14.47;64.77
49072;BME280;52656;52.610;10.236;2023-04-29T07:00:43;100947.75;;;14.57;62.85
49072;BME280;52656;52.610;10.236;2023-04-29T07:03:09;100954.22;;;14.36;64.13
49072;BME280;52656;52.610;10.236;2023-04-29T07:05:35;100967.63;;;14.34;65.24
49072;BME280;52656;52.610;10.236;2023-04-29T07:08:01;100971.06;;;14.54;64.28
49072;BME280;52656;52.610;10.236;2023-04-29T07:10:26;100968.66;;;14.49;63.70
49072;BME280;52656;52.610;10.236;2023-04-29T07:12:52;100983.63;;;14.17;64.70
49072;BME280;52656;52.610;10.236;2023-04-29T07:15:17;100983.63;;;14.00;64.37
49072;BME280;52656;52.610;10.236;2023-04-29T07:17:43;100992.44;;;13.83;65.21
49072;BME280;52656;52.610;10.236;2023-04-29T07:20:08;100995.00;;;13.84;65.78
49072;BME280;52656;52.610;10.236;2023-04-29T07:22:34;100993.81;;;14.26;64.01
49072;BME280;52656;52.610;10.236;2023-04-29T07:24:59;101001.75;;;14.95;60.36
49072;BME280;52656;52.610;10.236;2023-04-29T07:27:25;101000.53;;;15.82;57.84
49072;BME280;52656;52.610;10.236;2023-04-29T07:29:50;100995.44;;;18.20;51.36
49072;BME280;52656;52.610;10.236;2023-04-29T07:32:16;100997.66;;;17.04;51.71
49072;BME280;52656;52.610;10.236;2023-04-29T07:34:41;101008.00;;;15.59;55.67
49072;BME280;52656;52.610;10.236;2023-04-29T07:37:07;100998.31;;;18.04;48.76
49072;BME280;52656;52.610;10.236;2023-04-29T07:39:32;101007.41;;;17.74;48.31
49072;BME280;52656;52.610;10.236;2023-04-29T07:41:59;101008.94;;;19.09;44.72
49072;BME280;52656;52.610;10.236;2023-04-29T07:44:24;101009.84;;;21.00;42.08
49072;BME280;52656;52.610;10.236;2023-04-29T07:46:50;100999.19;;;22.51;38.88
49072;BME280;52656;52.610;10.236;2023-04-29T07:49:15;101006.16;;;24.15;36.48
49072;BME280;52656;52.610;10.236;2023-04-29T07:51:40;101001.28;;;22.47;37.69
49072;BME280;52656;52.610;10.236;2023-04-29T07:54:06;101011.84;;;23.83;35.97
49072;BME280;52656;52.610;10.236;2023-04-29T07:56:31;101004.75;;;25.34;35.37
49072;BME280;52656;52.610;10.236;2023-04-29T07:58:59;101015.94;;;26.39;34.02
49072;BME280;52656;52.610;10.236;2023-04-29T08:01:25;101015.38;;;26.00;34.52
49072;BME280;52656;52.610;10.236;2023-04-29T08:03:50;101010.63;;;26.81;31.31
49072;BME280;52656;52.610;10.236;2023-04-29T08:06:16;101016.19;;;29.05;30.29
49072;BME280;52656;52.610;10.236;2023-04-29T08:08:44;101020.06;;;27.29;32.27
49072;BME280;52656;52.610;10.236;2023-04-29T08:11:17;101024.66;;;29.26;27.84
49072;BME280;52656;52.610;10.236;2023-04-29T08:13:43;101027.34;;;30.05;27.32
49072;BME280;52656;52.610;10.236;2023-04-29T08:16:09;101018.72;;;30.16;25.92
49072;BME280;52656;52.610;10.236;2023-04-29T08:18:35;101030.22;;;30.12;26.26
49072;BME280;52656;52.610;10.236;2023-04-29T08:21:01;101020.09;;;30.58;26.20
49072;BME280;52656;52.610;10.236;2023-04-29T08:23:26;101030.81;;;26.79;30.40
49072;BME280;52656;52.610;10.236;2023-04-29T08:25:51;101040.66;;;29.38;28.74
49072;BME280;52656;52.610;10.236;2023-04-29T08:28:19;101032.91;;;28.04;28.63
49072;BME280;52656;52.610;10.236;2023-04-29T08:30:44;101051.19;;;28.28;28.44
49072;BME280;52656;52.610;10.236;2023-04-29T08:33:09;101056.28;;;25.61;31.59
49072;BME280;52656;52.610;10.236;2023-04-29T08:35:36;101063.31;;;24.41;32.85
49072;BME280;52656;52.610;10.236;2023-04-29T08:38:06;101060.31;;;26.74;30.90
49072;BME280;52656;52.610;10.236;2023-04-29T08:40:35;101051.69;;;27.65;27.38
49072;BME280;52656;52.610;10.236;2023-04-29T08:43:05;101058.84;;;27.66;27.75
49072;BME280;52656;52.610;10.236;2023-04-29T08:45:34;101066.84;;;28.58;26.88
49072;BME280;52656;52.610;10.236;2023-04-29T08:48:01;101061.78;;;26.42;30.15
49072;BME280;52656;52.610;10.236;2023-04-29T08:50:29;101063.16;;;27.93;27.64
49072;BME280;52656;52.610;10.236;2023-04-29T08:52:54;101058.34;;;29.50;26.79
49072;BME280;52656;52.610;10.236;2023-04-29T08:55:20;101071.28;;;29.95;26.45
49072;BME280;52656;52.610;10.236;2023-04-29T08:57:48;101071.25;;;30.26;25.55
49072;BME280;52656;52.610;10.236;2023-04-29T09:00:14;101070.81;;;28.72;25.44
49072;BME280;52656;52.610;10.236;2023-04-29T09:02:44;101078.06;;;27.64;27.36
49072;BME280;52656;52.610;10.236;2023-04-29T09:05:11;101091.81;;;25.68;30.46
49072;BME280;52656;52.610;10.236;2023-04-29T09:07:40;101084.97;;;25.73;30.22
49072;BME280;52656;52.610;10.236;2023-04-29T09:10:06;101082.53;;;27.47;28.31
49072;BME280;52656;52.610;10.236;2023-04-29T09:12:32;101077.94;;;27.40;27.35
49072;BME280;52656;52.610;10.236;2023-04-29T09:14:57;101091.09;;;27.95;26.86
49072;BME280;52656;52.610;10.236;2023-04-29T09:22:54;101091.41;;;25.72;29.35
49072;BME280;52656;52.610;10.236;2023-04-29T09:25:20;101094.41;;;26.15;28.96
49072;BME280;52656;52.610;10.236;2023-04-29T09:27:45;101099.69;;;24.58;31.24
49072;BME280;52656;52.610;10.236;2023-04-29T09:30:11;101106.41;;;25.29;29.94
49072;BME280;52656;52.610;10.236;2023-04-29T09:32:38;101093.97;;;26.55;28.49
49072;BME280;52656;52.610;10.236;2023-04-29T09:35:23;101101.41;;;27.67;27.71
49072;BME280;52656;52.610;10.236;2023-04-29T09:37:49;101106.75;;;25.17;30.45
49072;BME280;52656;52.610;10.236;2023-04-29T09:40:31;101123.09;;;23.99;32.11
49072;BME280;52656;52.610;10.236;2023-04-29T09:43:00;101119.72;;;23.66;33.45
49072;BME280;52656;52.610;10.236;2023-04-29T09:45:32;101124.03;;;25.90;29.92
49072;BME280;52656;52.610;10.236;2023-04-29T09:48:02;101121.53;;;26.60;29.01
49072;BME280;52656;52.610;10.236;2023-04-29T09:50:28;101115.72;;;27.51;27.99
49072;BME280;52656;52.610;10.236;2023-04-29T09:52:54;101115.38;;;27.46;27.48
49072;BME280;52656;52.610;10.236;2023-04-29T09:55:20;101110.59;;;27.14;26.39
49072;BME280;52656;52.610;10.236;2023-04-29T09:57:45;101117.25;;;27.19;26.76
49072;BME280;52656;52.610;10.236;2023-04-29T10:00:14;101113.06;;;26.99;27.74
49072;BME280;52656;52.610;10.236;2023-04-29T10:02:45;101109.31;;;27.26;27.66
49072;BME280;52656;52.610;10.236;2023-04-29T10:05:17;101123.44;;;28.06;26.21
49072;BME280;52656;52.610;10.236;2023-04-29T10:07:45;101122.72;;;27.88;27.07
49072;BME280;52656;52.610;10.236;2023-04-29T10:10:11;101126.78;;;27.83;26.22
49072;BME280;52656;52.610;10.236;2023-04-29T10:12:39;101114.66;;;27.70;26.57
49072;BME280;52656;52.610;10.236;2023-04-29T10:15:33;101128.28;;;26.74;26.08
49072;BME280;52656;52.610;10.236;2023-04-29T10:18:18;101122.59;;;24.83;30.24
49072;BME280;52656;52.610;10.236;2023-04-29T10:20:46;101121.31;;;26.36;28.13
49072;BME280;52656;52.610;10.236;2023-04-29T10:23:12;101126.56;;;26.73;26.81
49072;BME280;52656;52.610;10.236;2023-04-29T10:25:39;101134.19;;;26.51;26.26
49072;BME280;52656;52.610;10.236;2023-04-29T10:28:08;101144.75;;;26.54;26.58
49072;BME280;52656;52.610;10.236;2023-04-29T10:30:38;101131.84;;;26.74;27.22
49072;BME280;52656;52.610;10.236;2023-04-29T10:33:08;101139.06;;;26.66;25.75
49072;BME280;52656;52.610;10.236;2023-04-29T10:35:35;101130.34;;;26.09;27.13
49072;BME280;52656;52.610;10.236;2023-04-29T10:38:05;101133.97;;;25.05;28.40
49072;BME280;52656;52.610;10.236;2023-04-29T10:40:43;101133.88;;;24.78;29.52
49072;BME280;52656;52.610;10.236;2023-04-29T10:43:10;101128.84;;;24.93;27.63
49072;BME280;52656;52.610;10.236;2023-04-29T10:45:36;101136.84;;;25.04;27.84
49072;BME280;52656;52.610;10.236;2023-04-29T10:50:31;101139.03;;;24.62;29.44
49072;BME280;52656;52.610;10.236;2023-04-29T10:52:56;101141.84;;;24.41;29.76
49072;BME280;52656;52.610;10.236;2023-04-29T10:55:23;101143.91;;;24.08;30.09
49072;BME280;52656;52.610;10.236;2023-04-29T10:57:51;101144.81;;;23.78;30.79
49072;BME280;52656;52.610;10.236;2023-04-29T11:00:27;101151.66;;;23.51;31.30
49072;BME280;52656;52.610;10.236;2023-04-29T11:02:54;101146.06;;;23.43;31.41
49072;BME280;52656;52.610;10.236;2023-04-29T11:05:34;101146.69;;;23.56;31.34
49072;BME280;52656;52.610;10.236;2023-04-29T11:08:19;101138.38;;;23.18;31.92
49072;BME280;52656;52.610;10.236;2023-04-29T11:10:52;101138.78;;;23.13;32.15
49072;BME280;52656;52.610;10.236;2023-04-29T11:15:46;101142.44;;;23.85;32.23
49072;BME280;52656;52.610;10.236;2023-04-29T11:18:12;101152.75;;;23.39;31.82
49072;BME280;52656;52.610;10.236;2023-04-29T11:23:28;101151.75;;;23.19;32.21
49072;BME280;52656;52.610;10.236;2023-04-29T11:25:54;101151.16;;;23.16;31.44
49072;BME280;52656;52.610;10.236;2023-04-29T11:28:21;101145.91;;;23.14;31.26
49072;BME280;52656;52.610;10.236;2023-04-29T11:30:47;101158.97;;;22.98;31.37
49072;BME280;52656;52.610;10.236;2023-04-29T11:33:14;101153.81;;;23.27;32.39
49072;BME280;52656;52.610;10.236;2023-04-29T11:35:40;101150.97;;;23.59;31.93
49072;BME280;52656;52.610;10.236;2023-04-29T11:38:06;101148.38;;;23.78;31.99
49072;BME280;52656;52.610;10.236;2023-04-29T11:40:32;101150.91;;;23.40;31.99
49072;BME280;52656;52.610;10.236;2023-04-29T11:42:57;101145.28;;;23.32;31.87
49072;BME280;52656;52.610;10.236;2023-04-29T11:45:23;101149.84;;;23.10;31.25
49072;BME280;52656;52.610;10.236;2023-04-29T11:47:48;101162.06;;;22.72;32.40
49072;BME280;52656;52.610;10.236;2023-04-29T11:50:15;101167.59;;;22.71;31.67
49072;BME280;52656;52.610;10.236;2023-04-29T11:52:45;101167.25;;;22.64;32.06
49072;BME280;52656;52.610;10.236;2023-04-29T11:55:11;101166.81;;;22.48;32.23
49072;BME280;52656;52.610;10.236;2023-04-29T11:57:37;101170.06;;;22.19;33.12
49072;BME280;52656;52.610;10.236;2023-04-29T12:00:07;101173.78;;;21.85;33.56
49072;BME280;52656;52.610;10.236;2023-04-29T12:02:33;101178.78;;;22.00;33.71
49072;BME280;52656;52.610;10.236;2023-04-29T12:04:59;101174.53;;;21.87;33.89
49072;BME280;52656;52.610;10.236;2023-04-29T12:07:25;101173.28;;;21.79;33.60
49072;BME280;52656;52.610;10.236;2023-04-29T12:09:51;101182.97;;;21.71;32.99
49072;BME280;52656;52.610;10.236;2023-04-29T12:12:16;101188.38;;;21.13;33.97
49072;BME280;52656;52.610;10.236;2023-04-29T12:14:42;101186.84;;;20.98;34.67
49072;BME280;52656;52.610;10.236;2023-04-29T12:17:08;101185.38;;;20.70;34.77
49072;BME280;52656;52.610;10.236;2023-04-29T12:19:35;101186.88;;;20.50;35.38
49072;BME280;52656;52.610;10.236;2023-04-29T12:22:03;101194.00;;;20.38;35.90
49072;BME280;52656;52.610;10.236;2023-04-29T12:24:33;101188.03;;;20.59;35.61
49072;BME280;52656;52.610;10.236;2023-04-29T12:26:59;101190.03;;;20.92;35.24
49072;BME280;52656;52.610;10.236;2023-04-29T12:29:25;101193.16;;;21.10;34.77
49072;BME280;52656;52.610;10.236;2023-04-29T12:31:50;101184.16;;;21.44;33.93
49072;BME280;52656;52.610;10.236;2023-04-29T12:34:16;101180.50;;;21.79;34.29
49072;BME280;52656;52.610;10.236;2023-04-29T12:36:48;101172.06;;;21.84;34.34
49072;BME280;52656;52.610;10.236;2023-04-29T12:39:14;101172.03;;;22.17;34.04
49072;BME280;52656;52.610;10.236;2023-04-29T12:41:41;101176.88;;;21.80;33.44
49072;BME280;52656;52.610;10.236;2023-04-29T12:44:07;101191.84;;;21.38;33.33
49072;BME280;52656;52.610;10.236;2023-04-29T12:46:36;101191.66;;;21.06;33.46
49072;BME280;52656;52.610;10.236;2023-04-29T12:49:02;101200.97;;;20.89;34.00
49072;BME280;52656;52.610;10.236;2023-04-29T12:51:30;101200.09;;;20.77;33.25
49072;BME280;52656;52.610;10.236;2023-04-29T12:53:57;101194.03;;;20.62;34.16
49072;BME280;52656;52.610;10.236;2023-04-29T12:56:23;101195.00;;;20.37;35.56
49072;BME280;52656;52.610;10.236;2023-04-29T12:58:48;101198.03;;;20.33;35.26
49072;BME280;52656;52.610;10.236;2023-04-29T13:01:13;101202.38;;;20.22;35.43
49072;BME280;52656;52.610;10.236;2023-04-29T13:03:40;101200.59;;;20.34;35.39